Cypress Gardens, Louisiana
Current Conditions -  °F | °C
As of 9:53 AM on Monday 24 Nov 2014 (Local Time) from KNEW Reporting Station
Haze Haze  
Wind Chill: 62°   Ceiling: Unl
Heat Index: 62°   Visibility: 5mi
Dew Point: 59°   Wind: 12mph
Humidity: 90%   Direction: 290°WNW
Pressure: 29.9"   Gusts: NA
Location:  29.9486°N, 89.8975°W
Report Text: KNEW 241553Z 29010KT 5SM BR CLR 17/15 A2990 RMK AO2 SLP117 T01670150
Loading
Personal Weather Stations






























Interactive Weather Map New forecast layout! Learn more

10-Day Weather Forecast

Advertisements
Track Severe Weather on mobile